Time;durP1;ratioP1;P1;durP2;ratioP2;P2;SDS_P1;SDS_P2;PMS_P1;PMS_P2;Temp;Humidity;BMP_temperature;BMP_pressure;BME280_temperature;BME280_humidity;BME280_pressure;Samples;Min_cycle;Max_cycle;Signal;HPM_P1;HPM_P2
2020/12/13 00:00:13;;;;;;;3.27;1.60;;;;;;;;;;10586538;28;20222;-70
2020/12/13 00:05:14;;;;;;;3.17;1.60;;;;;;;;;;10568068;28;20323;-72
2020/12/13 00:10:17;;;;;;;3.03;1.40;;;;;;;;;;10565519;28;20222;-71
2020/12/13 00:15:19;;;;;;;3.00;1.47;;;;;;;;;;10563537;28;20303;-71
2020/12/13 00:20:20;;;;;;;2.60;1.50;;;;;;;;;;10563142;28;20238;-72
2020/12/13 00:25:23;;;;;;;1.90;1.27;;;;;;;;;;10555311;28;20191;-72
2020/12/13 00:30:25;;;;;;;2.77;1.20;;;;;;;;;;10553179;28;20319;-72
2020/12/13 00:35:28;;;;;;;2.67;1.60;;;;;;;;;;10561533;28;20533;-71
2020/12/13 00:40:30;;;;;;;2.73;1.50;;;;;;;;;;10565324;28;20218;-70
2020/12/13 00:45:32;;;;;;;1.50;1.10;;;;;;;;;;10560893;28;20200;-69
2020/12/13 00:50:33;;;;;;;1.77;1.20;;;;;;;;;;10554217;28;20683;-69
2020/12/13 00:55:36;;;;;;;2.20;1.27;;;;;;;;;;10550978;28;20215;-68
2020/12/13 01:00:38;;;;;;;1.67;1.20;;;;;;;;;;10566772;28;20307;-72
2020/12/13 01:05:40;;;;;;;2.90;1.50;;;;;;;;;;10553350;28;20195;-72
2020/12/13 01:10:42;;;;;;;2.00;1.10;;;;;;;;;;10543046;28;20223;-70
2020/12/13 01:15:44;;;;;;;2.70;1.53;;;;;;;;;;10555848;28;20638;-72
2020/12/13 01:20:45;;;;;;;1.97;1.30;;;;;;;;;;10551933;28;20317;-71
2020/12/13 01:25:47;;;;;;;2.77;1.30;;;;;;;;;;10558935;28;20202;-71
2020/12/13 01:30:49;;;;;;;3.03;1.63;;;;;;;;;;10552791;28;20713;-71
2020/12/13 01:35:50;;;;;;;4.13;1.80;;;;;;;;;;10557123;28;20216;-71
2020/12/13 01:40:56;;;;;;;2.50;1.20;;;;;;;;;;10559008;28;20344;-70
2020/12/13 01:45:58;;;;;;;2.03;1.13;;;;;;;;;;10553715;28;20202;-71
2020/12/13 01:51:08;;;;;;;3.40;1.60;;;;;;;;;;10550226;28;20272;-72
2020/12/13 01:56:12;;;;;;;3.43;1.70;;;;;;;;;;10548220;28;20220;-72
2020/12/13 02:01:14;;;;;;;1.63;1.27;;;;;;;;;;10563811;28;20706;-71
2020/12/13 02:06:22;;;;;;;1.77;1.00;;;;;;;;;;10547235;28;20679;-73
2020/12/13 02:11:25;;;;;;;2.37;1.40;;;;;;;;;;10552126;28;20226;-71
2020/12/13 02:16:27;;;;;;;1.13;1.00;;;;;;;;;;10557314;28;20714;-71
2020/12/13 02:21:28;;;;;;;2.10;1.10;;;;;;;;;;10554592;28;20559;-71
2020/12/13 02:26:31;;;;;;;1.30;1.20;;;;;;;;;;10550686;28;20200;-72
2020/12/13 02:31:32;;;;;;;2.23;1.10;;;;;;;;;;10550617;28;20227;-73
2020/12/13 02:36:34;;;;;;;1.90;1.13;;;;;;;;;;10551832;28;20649;-72
2020/12/13 02:41:36;;;;;;;2.93;1.27;;;;;;;;;;10562047;28;20613;-72
2020/12/13 02:46:38;;;;;;;2.03;1.33;;;;;;;;;;10547704;28;20206;-73
2020/12/13 02:51:40;;;;;;;1.90;1.30;;;;;;;;;;10549951;28;20222;-72
2020/12/13 02:56:42;;;;;;;2.03;1.33;;;;;;;;;;10545912;28;20231;-72
2020/12/13 03:01:44;;;;;;;2.53;1.30;;;;;;;;;;10552685;28;20250;-72
2020/12/13 03:06:46;;;;;;;2.73;1.40;;;;;;;;;;10555655;28;20533;-71
2020/12/13 03:11:48;;;;;;;3.53;1.50;;;;;;;;;;10538514;28;20677;-70
2020/12/13 03:16:50;;;;;;;2.73;1.57;;;;;;;;;;10537889;28;20219;-71
2020/12/13 03:21:52;;;;;;;3.27;1.70;;;;;;;;;;10536203;28;20231;-71
2020/12/13 03:26:54;;;;;;;2.60;1.50;;;;;;;;;;10544371;28;20279;-69
2020/12/13 03:31:56;;;;;;;2.87;1.40;;;;;;;;;;10553975;28;20350;-72
2020/12/13 03:36:58;;;;;;;2.37;1.33;;;;;;;;;;10545719;28;20227;-70
2020/12/13 03:42:01;;;;;;;2.57;1.47;;;;;;;;;;10561425;28;20703;-72
2020/12/13 03:47:02;;;;;;;2.90;1.60;;;;;;;;;;10557466;28;20215;-71
2020/12/13 03:52:04;;;;;;;2.43;1.53;;;;;;;;;;10560240;28;20271;-71
2020/12/13 03:57:06;;;;;;;3.87;1.80;;;;;;;;;;10550631;28;20238;-70
2020/12/13 04:02:08;;;;;;;3.40;1.80;;;;;;;;;;10564320;28;20554;-72
2020/12/13 04:07:10;;;;;;;3.47;1.70;;;;;;;;;;10550042;28;20295;-71
2020/12/13 04:12:13;;;;;;;4.43;1.80;;;;;;;;;;10559215;28;20218;-71
2020/12/13 04:17:14;;;;;;;2.50;1.30;;;;;;;;;;10558928;28;20237;-71
2020/12/13 04:22:16;;;;;;;4.10;2.20;;;;;;;;;;10543042;28;20563;-72
2020/12/13 04:27:18;;;;;;;3.63;1.97;;;;;;;;;;10550825;28;20627;-72
2020/12/13 04:32:21;;;;;;;3.43;1.80;;;;;;;;;;10556135;28;20580;-72
2020/12/13 04:37:23;;;;;;;4.17;2.20;;;;;;;;;;10558773;28;20646;-70
2020/12/13 04:42:28;;;;;;;4.37;2.13;;;;;;;;;;10557951;28;20261;-71
2020/12/13 04:47:31;;;;;;;4.50;2.40;;;;;;;;;;10553813;28;20211;-70
2020/12/13 04:52:34;;;;;;;4.50;2.10;;;;;;;;;;10556415;28;20218;-71
2020/12/13 04:57:36;;;;;;;5.10;2.30;;;;;;;;;;10557023;28;20237;-72
2020/12/13 05:02:37;;;;;;;4.33;2.20;;;;;;;;;;10568966;28;20215;-73
2020/12/13 05:07:39;;;;;;;4.97;2.23;;;;;;;;;;10557355;28;20650;-73
2020/12/13 05:12:41;;;;;;;5.43;2.50;;;;;;;;;;10554680;28;20237;-71
2020/12/13 05:17:43;;;;;;;6.20;3.03;;;;;;;;;;10550782;28;20230;-71
2020/12/13 05:22:44;;;;;;;5.20;2.30;;;;;;;;;;10553276;28;20234;-72
2020/12/13 05:27:50;;;;;;;6.30;2.97;;;;;;;;;;10557113;28;20684;-71
2020/12/13 05:32:56;;;;;;;6.77;3.20;;;;;;;;;;10546279;28;20295;-72
2020/12/13 05:37:58;;;;;;;6.30;3.13;;;;;;;;;;10559071;28;20222;-73
2020/12/13 05:43:06;;;;;;;6.13;2.90;;;;;;;;;;10545972;28;20594;-71
2020/12/13 05:48:24;;;;;;;7.00;3.33;;;;;;;;;;10560220;28;20199;-71
2020/12/13 05:53:27;;;;;;;8.07;3.43;;;;;;;;;;10550548;28;20215;-71
2020/12/13 05:58:30;;;;;;;7.23;3.73;;;;;;;;;;10561970;28;20222;-72
2020/12/13 06:03:33;;;;;;;7.63;3.57;;;;;;;;;;10578343;28;20219;-72
2020/12/13 06:08:51;;;;;;;7.93;3.73;;;;;;;;;;10553541;28;20187;-69
2020/12/13 06:13:54;;;;;;;8.53;4.20;;;;;;;;;;10551923;28;20575;-73
2020/12/13 06:18:56;;;;;;;7.10;3.43;;;;;;;;;;10552772;28;20223;-71
2020/12/13 06:23:57;;;;;;;7.40;3.63;;;;;;;;;;10548058;28;20222;-71
2020/12/13 06:28:59;;;;;;;7.40;3.93;;;;;;;;;;10560274;28;20200;-70
2020/12/13 06:34:02;;;;;;;7.60;3.67;;;;;;;;;;10547930;28;20204;-71
2020/12/13 06:39:06;;;;;;;6.37;2.63;;;;;;;;;;10547559;28;20219;-72
2020/12/13 06:44:09;;;;;;;9.50;4.63;;;;;;;;;;10551818;28;20207;-71
2020/12/13 06:49:12;;;;;;;9.00;3.80;;;;;;;;;;10553131;28;20283;-71
2020/12/13 06:54:16;;;;;;;6.87;3.30;;;;;;;;;;10550950;28;20310;-71
2020/12/13 06:59:19;;;;;;;7.43;3.97;;;;;;;;;;10547372;28;20211;-71
2020/12/13 07:04:31;;;;;;;9.60;4.30;;;;;;;;;;10539793;28;20200;-71
2020/12/13 07:09:33;;;;;;;8.57;4.10;;;;;;;;;;10552423;28;20219;-69
2020/12/13 07:14:37;;;;;;;7.90;4.13;;;;;;;;;;10547456;28;20483;-70
2020/12/13 07:19:39;;;;;;;8.50;3.80;;;;;;;;;;10548043;28;20229;-71
2020/12/13 07:24:41;;;;;;;7.63;3.87;;;;;;;;;;10554471;28;20199;-70
2020/12/13 07:29:43;;;;;;;8.00;4.40;;;;;;;;;;10553124;28;20227;-70
2020/12/13 07:34:45;;;;;;;8.83;4.10;;;;;;;;;;10548762;28;20211;-71
2020/12/13 07:39:47;;;;;;;7.63;3.90;;;;;;;;;;10558546;28;20226;-71
2020/12/13 07:44:49;;;;;;;8.30;4.00;;;;;;;;;;10556503;28;20206;-71
2020/12/13 07:49:51;;;;;;;7.80;3.50;;;;;;;;;;10553816;28;20717;-70
2020/12/13 07:54:52;;;;;;;9.00;4.60;;;;;;;;;;10556984;28;20296;-70
2020/12/13 07:59:55;;;;;;;9.87;5.10;;;;;;;;;;10554557;28;20219;-70
2020/12/13 08:04:56;;;;;;;9.40;4.67;;;;;;;;;;10552843;28;20218;-71
2020/12/13 08:09:58;;;;;;;10.40;5.10;;;;;;;;;;10551803;28;20702;-71
2020/12/13 08:15:01;;;;;;;9.43;4.90;;;;;;;;;;10553413;28;20210;-70
2020/12/13 08:20:03;;;;;;;10.90;5.60;;;;;;;;;;10559881;28;20227;-71
2020/12/13 08:25:05;;;;;;;10.43;4.97;;;;;;;;;;10563786;28;20667;-71
2020/12/13 08:30:08;;;;;;;7.43;3.67;;;;;;;;;;10557317;28;20215;-71
2020/12/13 08:35:11;;;;;;;10.77;5.10;;;;;;;;;;10555011;28;20264;-71
2020/12/13 08:40:12;;;;;;;9.80;4.83;;;;;;;;;;10559953;28;20223;-71
2020/12/13 08:45:24;;;;;;;7.67;3.10;;;;;;;;;;10559539;28;20203;-70
2020/12/13 08:50:26;;;;;;;8.90;4.70;;;;;;;;;;10560843;28;20302;-71
2020/12/13 08:55:28;;;;;;;9.50;4.70;;;;;;;;;;10556792;28;20213;-71
2020/12/13 09:00:30;;;;;;;8.53;4.93;;;;;;;;;;10559250;28;20345;-70
2020/12/13 09:05:32;;;;;;;9.30;4.30;;;;;;;;;;10556892;28;20264;-69
2020/12/13 09:10:37;;;;;;;8.73;4.53;;;;;;;;;;10560518;28;20215;-72
2020/12/13 09:15:39;;;;;;;9.07;4.67;;;;;;;;;;10559677;28;20207;-71
2020/12/13 09:20:41;;;;;;;7.93;3.77;;;;;;;;;;10555701;28;20624;-72
2020/12/13 09:25:46;;;;;;;7.30;3.63;;;;;;;;;;10562777;28;20222;-71
2020/12/13 09:30:48;;;;;;;7.43;4.20;;;;;;;;;;10560365;28;20215;-70
2020/12/13 09:35:50;;;;;;;7.20;3.50;;;;;;;;;;10548296;28;20225;-72
2020/12/13 09:40:51;;;;;;;4.63;2.70;;;;;;;;;;10556962;28;20598;-72
2020/12/13 09:45:53;;;;;;;6.37;2.57;;;;;;;;;;10550484;28;20196;-71
2020/12/13 09:50:55;;;;;;;4.17;2.07;;;;;;;;;;10549122;28;20242;-71
2020/12/13 09:55:57;;;;;;;3.53;1.97;;;;;;;;;;10555565;28;20215;-72
2020/12/13 10:01:01;;;;;;;5.47;2.40;;;;;;;;;;10549890;28;20246;-71
2020/12/13 10:06:10;;;;;;;5.83;2.90;;;;;;;;;;10544649;28;20290;-71
2020/12/13 10:11:14;;;;;;;7.40;3.37;;;;;;;;;;10548450;27;20673;-71
2020/12/13 10:16:17;;;;;;;5.60;2.90;;;;;;;;;;10550433;28;20771;-70
2020/12/13 10:21:20;;;;;;;6.63;2.80;;;;;;;;;;10545999;28;20760;-71
2020/12/13 10:26:22;;;;;;;4.50;2.10;;;;;;;;;;10551491;28;20245;-70
2020/12/13 10:31:28;;;;;;;4.77;2.40;;;;;;;;;;10548448;28;20223;-69
2020/12/13 10:36:31;;;;;;;4.10;2.10;;;;;;;;;;10546759;28;20238;-70
2020/12/13 10:41:33;;;;;;;4.97;2.30;;;;;;;;;;10544311;28;20269;-71
2020/12/13 10:46:38;;;;;;;2.70;1.33;;;;;;;;;;10551357;27;20217;-70
2020/12/13 10:51:40;;;;;;;6.47;3.03;;;;;;;;;;10560632;28;20299;-70
2020/12/13 10:56:43;;;;;;;4.70;2.00;;;;;;;;;;10556598;28;20230;-70
2020/12/13 11:01:47;;;;;;;3.67;1.90;;;;;;;;;;10554419;28;20234;-70
2020/12/13 11:06:48;;;;;;;3.30;1.80;;;;;;;;;;10558426;28;20203;-70
2020/12/13 11:11:50;;;;;;;2.83;1.40;;;;;;;;;;10561298;28;20245;-69
2020/12/13 11:16:52;;;;;;;3.73;1.60;;;;;;;;;;10550350;28;20231;-72
2020/12/13 11:21:54;;;;;;;3.77;1.63;;;;;;;;;;10549157;28;20250;-71
2020/12/13 11:26:56;;;;;;;3.93;1.77;;;;;;;;;;10566849;28;20293;-72
2020/12/13 11:31:58;;;;;;;6.97;3.27;;;;;;;;;;10547262;28;20246;-71
2020/12/13 11:37:02;;;;;;;4.67;1.83;;;;;;;;;;10554098;28;20211;-70
2020/12/13 11:42:04;;;;;;;7.33;3.10;;;;;;;;;;10563468;28;20219;-70
2020/12/13 11:47:07;;;;;;;5.17;1.90;;;;;;;;;;10556328;28;20205;-71
2020/12/13 11:52:08;;;;;;;4.30;2.30;;;;;;;;;;10555416;28;20319;-71
2020/12/13 11:57:11;;;;;;;5.27;2.47;;;;;;;;;;10550678;28;20242;-70
2020/12/13 12:02:13;;;;;;;4.30;1.97;;;;;;;;;;10557933;28;20222;-71
2020/12/13 12:07:15;;;;;;;5.63;2.60;;;;;;;;;;10564371;28;20195;-70
2020/12/13 12:12:17;;;;;;;4.47;1.80;;;;;;;;;;10564961;28;20310;-71
2020/12/13 12:17:19;;;;;;;4.17;2.00;;;;;;;;;;10568532;28;20234;-71
2020/12/13 12:22:21;;;;;;;4.70;2.10;;;;;;;;;;10572780;28;20224;-71
2020/12/13 12:27:23;;;;;;;2.33;1.30;;;;;;;;;;10564113;28;20615;-71
2020/12/13 12:32:25;;;;;;;2.87;1.53;;;;;;;;;;10563768;28;20223;-69
2020/12/13 12:37:27;;;;;;;2.57;1.60;;;;;;;;;;10569558;28;20694;-72
2020/12/13 12:42:30;;;;;;;4.60;2.03;;;;;;;;;;10565365;28;20224;-72
2020/12/13 12:47:33;;;;;;;5.73;1.53;;;;;;;;;;10568953;28;20627;-71
2020/12/13 12:52:34;;;;;;;4.93;2.27;;;;;;;;;;10569893;28;20624;-71
2020/12/13 12:57:36;;;;;;;5.10;2.40;;;;;;;;;;10563809;28;20242;-70
2020/12/13 13:02:39;;;;;;;4.90;2.10;;;;;;;;;;10571494;28;20260;-70
2020/12/13 13:07:43;;;;;;;6.43;2.33;;;;;;;;;;10551778;28;20202;-70
2020/12/13 13:12:45;;;;;;;5.07;2.17;;;;;;;;;;10573134;28;20246;-69
2020/12/13 13:17:50;;;;;;;4.57;2.37;;;;;;;;;;10571938;28;20791;-72
2020/12/13 13:22:52;;;;;;;5.20;2.90;;;;;;;;;;10574300;28;20652;-72
2020/12/13 13:27:53;;;;;;;5.60;2.73;;;;;;;;;;10576827;28;20225;-70
2020/12/13 13:32:56;;;;;;;4.87;2.10;;;;;;;;;;10565207;28;20229;-70
2020/12/13 13:37:57;;;;;;;5.20;2.00;;;;;;;;;;10569188;28;20225;-71
2020/12/13 13:43:01;;;;;;;5.07;2.43;;;;;;;;;;10553613;28;20461;-70
2020/12/13 13:48:15;;;;;;;5.40;2.97;;;;;;;;;;10555372;28;20290;-71
2020/12/13 13:53:16;;;;;;;5.57;2.27;;;;;;;;;;10552788;28;20235;-71
2020/12/13 13:58:21;;;;;;;6.03;2.90;;;;;;;;;;10545250;28;20597;-71
2020/12/13 14:03:24;;;;;;;5.10;2.47;;;;;;;;;;10550874;28;20662;-69
2020/12/13 14:08:42;;;;;;;5.57;2.90;;;;;;;;;;10551904;28;20192;-71
2020/12/13 14:19:49;;;;;;;4.97;2.40;;;;;;;;;;10548415;28;20223;-70
2020/12/13 14:25:23;;;;;;;5.33;2.40;;;;;;;;;;10547446;28;20207;-71
2020/12/13 14:30:24;;;;;;;5.87;2.63;;;;;;;;;;10548048;28;20216;-70
2020/12/13 14:35:26;;;;;;;4.83;2.40;;;;;;;;;;10557389;28;20196;-71
2020/12/13 14:40:28;;;;;;;6.10;2.90;;;;;;;;;;10553499;28;20685;-71
2020/12/13 14:45:29;;;;;;;5.83;2.60;;;;;;;;;;10546631;28;20288;-70
2020/12/13 14:50:32;;;;;;;6.77;3.00;;;;;;;;;;10547379;28;20215;-70
2020/12/13 14:55:34;;;;;;;5.40;2.63;;;;;;;;;;10545503;28;20343;-69
2020/12/13 15:00:36;;;;;;;6.83;3.27;;;;;;;;;;10548277;28;20222;-71
2020/12/13 15:05:40;;;;;;;6.37;2.93;;;;;;;;;;10547688;28;20203;-71
2020/12/13 15:10:42;;;;;;;6.57;3.03;;;;;;;;;;10550910;28;20219;-72
2020/12/13 15:15:49;;;;;;;7.00;3.03;;;;;;;;;;10553884;28;20543;-70
2020/12/13 15:20:51;;;;;;;7.00;3.63;;;;;;;;;;10542493;28;20222;-70
2020/12/13 15:25:53;;;;;;;7.80;3.60;;;;;;;;;;10540715;28;20206;-71
2020/12/13 15:30:54;;;;;;;8.37;3.73;;;;;;;;;;10554746;28;20640;-71
2020/12/13 15:35:57;;;;;;;7.10;3.30;;;;;;;;;;10547500;28;20558;-71
2020/12/13 15:40:58;;;;;;;8.33;3.90;;;;;;;;;;10555768;28;20241;-71
2020/12/13 15:46:00;;;;;;;7.63;3.33;;;;;;;;;;10544623;28;20195;-70
2020/12/13 15:51:02;;;;;;;8.27;3.87;;;;;;;;;;10559258;28;20231;-69
2020/12/13 15:56:04;;;;;;;7.37;3.97;;;;;;;;;;10554361;28;20222;-71
2020/12/13 16:01:05;;;;;;;6.50;3.33;;;;;;;;;;10542277;28;20623;-71
2020/12/13 16:06:08;;;;;;;7.60;3.80;;;;;;;;;;10561666;28;20195;-70
2020/12/13 16:11:13;;;;;;;28.13;15.60;;;;;;;;;;10550112;28;20218;-71
2020/12/13 16:16:15;;;;;;;8.23;4.03;;;;;;;;;;10558951;28;20674;-71
2020/12/13 16:21:21;;;;;;;7.27;3.57;;;;;;;;;;10554443;28;20321;-71
2020/12/13 16:26:22;;;;;;;5.90;3.37;;;;;;;;;;10555299;28;20584;-70
2020/12/13 16:31:24;;;;;;;7.20;3.60;;;;;;;;;;10555464;28;20219;-71
2020/12/13 16:36:28;;;;;;;6.17;3.23;;;;;;;;;;10555374;28;20244;-71
2020/12/13 16:41:29;;;;;;;6.33;3.40;;;;;;;;;;10559071;28;20598;-71
2020/12/13 16:46:38;;;;;;;7.70;3.67;;;;;;;;;;10554615;28;20203;-71
2020/12/13 16:51:49;;;;;;;7.57;3.60;;;;;;;;;;10552749;28;20219;-71
2020/12/13 16:56:51;;;;;;;6.93;3.47;;;;;;;;;;10548846;28;20252;-69
2020/12/13 17:01:52;;;;;;;8.63;3.73;;;;;;;;;;10548303;28;20702;-69
2020/12/13 17:06:55;;;;;;;7.80;3.87;;;;;;;;;;10560018;28;20207;-71
2020/12/13 17:12:00;;;;;;;7.30;3.83;;;;;;;;;;10552677;28;20226;-70
2020/12/13 17:17:02;;;;;;;8.20;4.20;;;;;;;;;;10559232;28;20206;-70
2020/12/13 17:22:04;;;;;;;7.83;3.67;;;;;;;;;;10559173;28;20272;-70
2020/12/13 17:27:06;;;;;;;6.47;3.70;;;;;;;;;;10558097;28;20309;-71
2020/12/13 17:32:07;;;;;;;7.63;3.90;;;;;;;;;;10562958;28;20225;-68
2020/12/13 17:37:10;;;;;;;7.60;3.90;;;;;;;;;;10552955;28;20679;-70
2020/12/13 17:42:13;;;;;;;7.97;3.53;;;;;;;;;;10562338;28;20559;-69
2020/12/13 17:47:18;;;;;;;6.80;3.47;;;;;;;;;;10556820;28;20603;-69
2020/12/13 17:52:25;;;;;;;7.60;3.87;;;;;;;;;;10558765;28;20215;-70
2020/12/13 17:57:31;;;;;;;7.30;3.93;;;;;;;;;;10555895;28;20338;-70
2020/12/13 18:02:34;;;;;;;7.40;3.67;;;;;;;;;;10547148;28;20227;-69
2020/12/13 18:07:36;;;;;;;7.60;3.87;;;;;;;;;;10541260;28;20204;-71
2020/12/13 18:12:38;;;;;;;7.97;3.97;;;;;;;;;;10560180;28;20242;-70
2020/12/13 18:17:40;;;;;;;8.10;4.10;;;;;;;;;;10548714;28;20218;-72
2020/12/13 18:22:44;;;;;;;9.30;4.40;;;;;;;;;;10551305;28;20259;-70
2020/12/13 18:27:45;;;;;;;7.30;3.53;;;;;;;;;;10538676;28;20675;-70
2020/12/13 18:32:47;;;;;;;7.53;3.90;;;;;;;;;;10543982;28;20219;-70
2020/12/13 18:37:49;;;;;;;8.60;4.23;;;;;;;;;;10539547;28;20215;-71
2020/12/13 18:42:51;;;;;;;8.63;4.43;;;;;;;;;;10548177;28;20228;-71
2020/12/13 18:47:53;;;;;;;8.67;4.00;;;;;;;;;;10550262;28;20554;-70
2020/12/13 18:52:55;;;;;;;8.57;4.23;;;;;;;;;;10558943;28;20306;-70
2020/12/13 18:57:57;;;;;;;8.30;3.97;;;;;;;;;;10548848;28;20223;-71
2020/12/13 19:03:16;;;;;;;8.40;3.97;;;;;;;;;;10555148;28;20420;-73
2020/12/13 19:08:19;;;;;;;7.73;4.00;;;;;;;;;;10554523;28;20720;-70
2020/12/13 19:13:21;;;;;;;8.27;4.33;;;;;;;;;;10558309;28;20999;-70
2020/12/13 19:18:29;;;;;;;5.03;2.13;;;;;;;;;;10552625;28;20242;-71
2020/12/13 19:23:31;;;;;;;8.50;4.40;;;;;;;;;;10551500;28;20230;-69
2020/12/13 19:28:33;;;;;;;8.83;4.53;;;;;;;;;;10556171;28;20192;-71
2020/12/13 19:33:34;;;;;;;8.33;4.57;;;;;;;;;;10551614;28;20633;-71
2020/12/13 19:38:37;;;;;;;9.37;4.63;;;;;;;;;;10555882;28;20223;-71
2020/12/13 19:43:39;;;;;;;8.43;4.67;;;;;;;;;;10556336;28;20225;-69
2020/12/13 19:48:40;;;;;;;7.93;4.47;;;;;;;;;;10554925;28;20199;-71
2020/12/13 19:53:42;;;;;;;9.93;5.20;;;;;;;;;;10549846;28;20291;-69
2020/12/13 19:58:44;;;;;;;10.47;5.07;;;;;;;;;;10551940;28;20215;-70
2020/12/13 20:03:49;;;;;;;7.87;4.17;;;;;;;;;;10551746;28;20679;-70
2020/12/13 20:08:51;;;;;;;8.53;4.73;;;;;;;;;;10552090;28;20188;-69
2020/12/13 20:14:02;;;;;;;10.30;4.77;;;;;;;;;;10559247;28;20298;-70
2020/12/13 21:18:16;;;;;;;9.27;5.30;;;;;;;;;;10557871;28;20265;-70
2020/12/13 21:23:24;;;;;;;9.40;5.27;;;;;;;;;;10563259;28;20229;-71
2020/12/13 21:40:00;;;;;;;9.70;5.20;;;;;;;;;;10555430;28;20222;-70
2020/12/13 21:45:03;;;;;;;8.83;4.57;;;;;;;;;;10535546;28;20631;-72
2020/12/13 21:55:22;;;;;;;8.63;4.90;;;;;;;;;;10551016;28;20213;-71
2020/12/13 22:27:15;;;;;;;12.40;6.70;;;;;;;;;;10537673;28;20539;-73
2020/12/13 22:32:17;;;;;;;12.70;7.37;;;;;;;;;;10558672;28;20215;-72
2020/12/13 22:37:19;;;;;;;12.63;7.67;;;;;;;;;;10559675;28;20263;-71
2020/12/13 22:42:21;;;;;;;13.27;8.00;;;;;;;;;;10555305;28;20311;-71
2020/12/13 22:47:23;;;;;;;14.93;8.33;;;;;;;;;;10557680;28;20286;-71
2020/12/13 22:52:25;;;;;;;13.00;7.80;;;;;;;;;;10555214;28;20234;-71
2020/12/13 22:57:27;;;;;;;12.27;7.10;;;;;;;;;;10556129;28;20619;-71
2020/12/13 23:02:29;;;;;;;11.90;6.67;;;;;;;;;;10555242;28;20226;-72
2020/12/13 23:07:31;;;;;;;12.93;6.63;;;;;;;;;;10560713;28;20470;-72
2020/12/13 23:12:32;;;;;;;10.43;5.67;;;;;;;;;;10551137;28;20222;-72
2020/12/13 23:17:35;;;;;;;10.50;6.07;;;;;;;;;;10552751;28;20195;-71
2020/12/13 23:22:37;;;;;;;6.30;3.20;;;;;;;;;;10551145;28;20229;-71
2020/12/13 23:27:39;;;;;;;7.67;3.07;;;;;;;;;;10545535;28;20199;-72
2020/12/13 23:32:42;;;;;;;10.63;4.63;;;;;;;;;;10550874;28;20229;-70
2020/12/13 23:37:44;;;;;;;10.73;6.03;;;;;;;;;;10545842;28;20642;-73
2020/12/13 23:42:45;;;;;;;11.50;6.10;;;;;;;;;;10556819;28;20215;-68
2020/12/13 23:47:49;;;;;;;11.80;7.00;;;;;;;;;;10555311;28;20221;-72
2020/12/13 23:52:51;;;;;;;12.07;6.60;;;;;;;;;;10558714;28;20644;-70
2020/12/13 23:57:53;;;;;;;12.00;6.57;;;;;;;;;;10563080;28;20210;-71
